Time;durP1;ratioP1;P1;durP2;ratioP2;P2;SDS_P1;SDS_P2;PMS_P1;PMS_P2;Temp;Humidity;BMP_temperature;BMP_pressure;BME280_temperature;BME280_humidity;BME280_pressure;Samples;Min_cycle;Max_cycle;Signal;HPM_P1;HPM_P2
2022/05/27 00:02:37;;;;;;;3.58;2.08;;;;;;;21.22;100.00;101398.41;5136459;27;20080;-75
2022/05/27 00:05:23;;;;;;;4.60;2.28;;;;;;;21.34;100.00;101405.78;5136575;27;20094;-76
2022/05/27 00:08:10;;;;;;;5.25;2.05;;;;;;;21.13;100.00;101406.03;5136679;27;20031;-76
2022/05/27 00:10:58;;;;;;;3.45;2.15;;;;;;;21.04;100.00;101398.47;5136423;27;20061;-76
2022/05/27 00:13:44;;;;;;;4.22;1.95;;;;;;;20.96;100.00;101403.31;5135265;27;20070;-74
2022/05/27 00:16:30;;;;;;;5.18;2.10;;;;;;;20.92;100.00;101399.06;5136093;27;20088;-75
2022/05/27 00:19:16;;;;;;;4.68;2.00;;;;;;;21.08;100.00;101392.03;5136021;27;20467;-75
2022/05/27 00:22:02;;;;;;;4.22;2.10;;;;;;;21.13;100.00;101393.53;5136565;27;20034;-76
2022/05/27 00:24:48;;;;;;;3.95;1.70;;;;;;;21.13;100.00;101393.53;5120632;27;20054;-76
2022/05/27 00:27:33;;;;;;;4.95;2.15;;;;;;;21.09;100.00;101397.28;5135689;27;20042;-75
2022/05/27 00:30:19;;;;;;;4.57;1.92;;;;;;;21.02;100.00;101411.84;5135350;27;20126;-75
2022/05/27 00:33:05;;;;;;;6.00;1.83;;;;;;;21.12;100.00;101397.16;5136151;27;20023;-75
2022/05/27 00:35:51;;;;;;;5.57;2.42;;;;;;;21.20;100.00;101386.09;5135289;27;20031;-75
2022/05/27 00:38:39;;;;;;;5.95;2.53;;;;;;;21.11;100.00;101387.44;5136365;27;20023;-75
2022/05/27 00:41:24;;;;;;;2.88;2.05;;;;;;;20.94;100.00;101395.38;5135853;27;20019;-75
2022/05/27 00:44:11;;;;;;;3.88;2.30;;;;;;;20.71;100.00;101384.97;5135912;27;20053;-75
2022/05/27 00:47:06;;;;;;;3.58;2.30;;;;;;;21.00;100.00;101381.78;5135623;27;20462;-74
2022/05/27 00:49:58;;;;;;;3.47;2.03;;;;;;;20.80;100.00;101386.31;5135978;27;20035;-75
2022/05/27 00:52:46;;;;;;;6.47;2.45;;;;;;;20.64;100.00;101383.53;5135847;27;20027;-75
2022/05/27 00:55:46;;;;;;;3.88;2.53;;;;;;;20.67;100.00;101395.84;5120882;27;20443;-75
2022/05/27 00:58:43;;;;;;;4.60;2.70;;;;;;;20.79;100.00;101395.25;5134137;27;20088;-75
2022/05/27 01:01:29;;;;;;;4.47;2.47;;;;;;;20.45;100.00;101397.81;5135036;27;20019;-77
2022/05/27 01:04:16;;;;;;;4.80;2.10;;;;;;;20.45;100.00;101396.00;5135484;27;20023;-76
2022/05/27 01:07:02;;;;;;;3.00;2.33;;;;;;;20.67;100.00;101391.38;5120097;27;20015;-76
2022/05/27 01:09:49;;;;;;;3.40;2.15;;;;;;;20.36;100.00;101395.56;5135739;27;20019;-76
2022/05/27 01:13:04;;;;;;;3.75;2.55;;;;;;;20.10;100.00;101402.13;5134546;27;20027;-75
2022/05/27 01:16:10;;;;;;;4.05;2.00;;;;;;;20.10;100.00;101404.78;5135263;27;20062;-75
2022/05/27 01:23:09;;;;;;;3.22;2.40;;;;;;;20.36;100.00;101399.09;5032451;28;20037;-75
2022/05/27 01:26:20;;;;;;;4.30;2.78;;;;;;;20.15;100.00;101399.22;5033004;28;20488;-75
2022/05/27 01:29:23;;;;;;;5.10;2.78;;;;;;;20.02;100.00;101398.91;5134796;27;20030;-75
2022/05/27 01:32:51;;;;;;;3.92;2.13;;;;;;;19.97;100.00;101398.22;5135544;28;20027;-75
2022/05/27 01:35:36;;;;;;;5.20;2.30;;;;;;;20.06;100.00;101394.28;5122856;28;20046;-74
2022/05/27 01:38:34;;;;;;;4.25;2.45;;;;;;;20.11;100.00;101395.84;5134512;28;20459;-75
2022/05/27 01:41:35;;;;;;;3.30;2.30;;;;;;;20.07;100.00;101394.22;5135243;28;20027;-75
2022/05/27 01:44:33;;;;;;;2.88;2.50;;;;;;;20.05;100.00;101397.91;5134293;28;20019;-75
2022/05/27 01:47:30;;;;;;;4.15;2.60;;;;;;;19.75;100.00;101389.50;5120409;28;20575;-75
2022/05/27 01:50:28;;;;;;;9.35;2.60;;;;;;;19.60;100.00;101389.31;5135472;28;20050;-75
2022/05/27 01:53:23;;;;;;;6.22;2.80;;;;;;;19.12;100.00;101395.75;5134176;28;20111;-75
2022/05/27 01:56:18;;;;;;;3.25;2.22;;;;;;;18.98;100.00;101407.88;5135057;28;20027;-75
2022/05/27 01:59:09;;;;;;;4.07;2.58;;;;;;;18.73;100.00;101402.69;5120060;28;20077;-75
2022/05/27 02:02:11;;;;;;;3.80;2.40;;;;;;;19.01;100.00;101397.97;5120636;28;20450;-74
2022/05/27 02:05:14;;;;;;;3.97;2.38;;;;;;;19.29;100.00;101405.69;5134812;28;20041;-75
2022/05/27 02:08:04;;;;;;;3.17;2.20;;;;;;;19.28;100.00;101403.97;5135341;28;20019;-75
2022/05/27 02:10:59;;;;;;;4.05;2.70;;;;;;;19.54;100.00;101414.38;5134423;28;20102;-76
2022/05/27 02:14:22;;;;;;;3.30;2.30;;;;;;;19.80;100.00;101414.09;5133962;28;20112;-75
2022/05/27 02:17:13;;;;;;;3.15;2.40;;;;;;;19.54;100.00;101418.81;5134033;27;20047;-74
2022/05/27 02:20:06;;;;;;;4.65;2.70;;;;;;;19.60;100.00;101424.72;5134979;28;20110;-75
2022/05/27 02:22:57;;;;;;;5.68;2.60;;;;;;;19.44;100.00;101428.97;5134916;28;20034;-75
2022/05/27 02:25:45;;;;;;;3.60;2.50;;;;;;;18.98;100.00;101437.94;5134057;28;20030;-75
2022/05/27 02:28:37;;;;;;;3.55;2.35;;;;;;;19.18;100.00;101423.84;5134744;28;20031;-75
2022/05/27 02:31:25;;;;;;;4.80;2.65;;;;;;;19.08;100.00;101419.84;5134374;28;20050;-75
2022/05/27 02:37:28;;;;;;;5.07;2.63;;;;;;;18.56;100.00;101425.50;5138402;27;20015;-75
2022/05/27 02:40:33;;;;;;;4.80;2.63;;;;;;;18.64;100.00;101410.13;5138090;27;20023;-75
2022/05/27 02:44:03;;;;;;;3.95;2.88;;;;;;;18.78;100.00;101418.44;5137336;27;20576;-75
2022/05/27 02:46:58;;;;;;;5.80;2.60;;;;;;;18.22;100.00;101417.09;5035445;28;20029;-75
2022/05/27 02:50:01;;;;;;;5.47;2.70;;;;;;;18.44;100.00;101423.31;5036147;28;20064;-75
2022/05/27 02:53:14;;;;;;;4.68;2.53;;;;;;;18.73;100.00;101428.38;5137981;27;20038;-75
2022/05/27 02:56:12;;;;;;;4.53;2.80;;;;;;;18.93;100.00;101439.91;5137834;27;20396;-76
2022/05/27 02:58:58;;;;;;;5.50;2.78;;;;;;;18.95;100.00;101440.75;5122714;27;20058;-75
2022/05/27 03:01:46;;;;;;;6.88;3.20;;;;;;;18.93;100.00;101444.38;5137331;27;20027;-75
2022/05/27 03:04:33;;;;;;;3.65;2.53;;;;;;;19.03;100.00;101453.69;5137460;27;20038;-75
2022/05/27 03:07:21;;;;;;;5.68;2.55;;;;;;;19.11;100.00;101440.97;5137513;27;20091;-75
2022/05/27 03:10:35;;;;;;;5.20;2.60;;;;;;;18.78;100.00;101439.69;5137362;27;20102;-75
2022/05/27 03:13:23;;;;;;;4.90;2.65;;;;;;;18.53;100.00;101437.09;5137467;27;20039;-75
2022/05/27 03:16:49;;;;;;;5.10;3.17;;;;;;;18.80;100.00;101445.78;5137579;27;20034;-75
2022/05/27 03:19:40;;;;;;;7.75;3.13;;;;;;;18.79;100.00;101436.09;5122425;27;20042;-76
2022/05/27 03:22:43;;;;;;;6.55;3.00;;;;;;;18.95;100.00;101435.44;5137784;27;20038;-75
2022/05/27 03:26:01;;;;;;;5.50;3.05;;;;;;;19.17;100.00;101438.94;5136498;27;20359;-75
2022/05/27 03:29:04;;;;;;;6.82;3.25;;;;;;;19.08;100.00;101441.97;5136719;27;20019;-75
2022/05/27 03:31:57;;;;;;;7.70;2.88;;;;;;;19.30;100.00;101435.78;5137130;27;20034;-73
2022/05/27 03:34:49;;;;;;;5.82;2.80;;;;;;;19.39;100.00;101438.94;5136356;27;20031;-76
2022/05/27 03:37:55;;;;;;;5.70;2.80;;;;;;;19.21;100.00;101445.84;5137562;27;20030;-74
2022/05/27 03:40:53;;;;;;;3.10;2.70;;;;;;;19.32;100.00;101440.13;5137455;27;20079;-73
2022/05/27 03:43:40;;;;;;;7.35;3.10;;;;;;;19.47;100.00;101447.44;5137101;27;20023;-75
2022/05/27 03:46:44;;;;;;;5.30;2.85;;;;;;;19.54;100.00;101442.72;5136298;27;20462;-74
2022/05/27 03:49:30;;;;;;;6.65;3.42;;;;;;;19.38;100.00;101452.28;5136705;27;20400;-75
2022/05/27 03:52:23;;;;;;;7.57;3.20;;;;;;;18.88;100.00;101452.53;5137141;27;20095;-75
2022/05/27 03:55:11;;;;;;;5.97;3.25;;;;;;;18.67;100.00;101450.72;5121711;27;20038;-74
2022/05/27 03:57:57;;;;;;;7.68;3.50;;;;;;;18.67;100.00;101456.03;5136777;27;20031;-76
2022/05/27 04:00:43;;;;;;;6.47;3.67;;;;;;;18.52;100.00;101455.75;5136484;27;20088;-75
2022/05/27 04:03:29;;;;;;;8.73;3.65;;;;;;;18.40;100.00;101448.25;5136495;27;20110;-76
2022/05/27 04:06:16;;;;;;;6.68;3.40;;;;;;;18.60;100.00;101456.31;5136315;27;20106;-73
2022/05/27 04:09:03;;;;;;;7.18;3.55;;;;;;;19.10;100.00;101458.69;5122758;27;20114;-73
2022/05/27 04:11:49;;;;;;;6.82;3.50;;;;;;;19.14;100.00;101462.09;5136670;27;20064;-72
2022/05/27 04:14:35;;;;;;;4.45;3.05;;;;;;;19.27;100.00;101459.81;5136104;27;20043;-73
2022/05/27 04:17:33;;;;;;;6.63;3.25;;;;;;;19.28;100.00;101465.09;5135405;27;20041;-74
2022/05/27 04:20:19;;;;;;;6.45;3.40;;;;;;;19.67;100.00;101451.91;5136713;27;20027;-72
2022/05/27 04:23:06;;;;;;;9.43;3.38;;;;;;;19.77;100.00;101454.09;5136732;27;20041;-72
2022/05/27 04:25:51;;;;;;;8.90;2.95;;;;;;;19.88;100.00;101459.81;5136463;27;20027;-72
2022/05/27 04:28:38;;;;;;;6.80;3.17;;;;;;;19.95;100.00;101452.44;5135634;27;20369;-72
2022/05/27 04:31:23;;;;;;;10.68;3.40;;;;;;;20.10;100.00;101451.78;5135305;27;20019;-73
2022/05/27 04:34:10;;;;;;;13.18;3.10;;;;;;;20.27;100.00;101455.41;5135609;27;20412;-72
2022/05/27 04:36:56;;;;;;;5.72;3.00;;;;;;;20.23;100.00;101461.81;5135496;27;20045;-73
2022/05/27 04:39:42;;;;;;;8.45;3.13;;;;;;;20.08;100.00;101454.47;5135127;27;20034;-72
2022/05/27 04:42:28;;;;;;;4.15;3.00;;;;;;;19.98;100.00;101457.63;5136105;27;20437;-72
2022/05/27 04:45:14;;;;;;;7.50;2.90;;;;;;;19.63;100.00;101467.13;5135791;27;20126;-73
2022/05/27 04:48:00;;;;;;;6.57;3.38;;;;;;;19.78;100.00;101462.94;5134854;27;20027;-73
2022/05/27 04:50:47;;;;;;;7.72;3.20;;;;;;;19.37;100.00;101475.31;5135193;27;20054;-73
2022/05/27 04:53:33;;;;;;;6.30;3.60;;;;;;;19.75;100.00;101469.28;5135817;27;20027;-73
2022/05/27 04:56:21;;;;;;;5.22;3.40;;;;;;;20.12;100.00;101477.41;5134653;27;20023;-73
2022/05/27 04:59:07;;;;;;;6.82;3.85;;;;;;;19.79;100.00;101478.84;5134814;27;20475;-73
2022/05/27 05:01:53;;;;;;;6.40;3.42;;;;;;;20.11;100.00;101485.44;5135605;27;20030;-73
2022/05/27 05:04:38;;;;;;;5.78;3.42;;;;;;;19.76;100.00;101496.75;5135537;27;20035;-73
2022/05/27 05:07:25;;;;;;;8.88;3.55;;;;;;;19.83;100.00;101492.88;5134561;27;20084;-73
2022/05/27 05:10:14;;;;;;;7.03;3.30;;;;;;;20.32;100.00;101492.47;5134713;27;20039;-73
2022/05/27 05:13:02;;;;;;;7.10;4.00;;;;;;;20.08;100.00;101494.41;5134016;27;20449;-73
2022/05/27 05:15:47;;;;;;;5.55;4.18;;;;;;;20.30;100.00;101497.00;5135718;27;20332;-73
2022/05/27 05:18:34;;;;;;;9.25;4.05;;;;;;;19.82;100.00;101502.66;5135324;27;20403;-73
2022/05/27 05:21:20;;;;;;;5.38;4.20;;;;;;;20.40;100.00;101500.97;5135006;27;20051;-74
2022/05/27 05:24:06;;;;;;;7.30;4.43;;;;;;;20.05;100.00;101494.53;5135338;27;20050;-70
2022/05/27 05:26:52;;;;;;;5.05;3.60;;;;;;;20.34;100.00;101499.47;5120052;27;20050;-71
2022/05/27 05:29:37;;;;;;;5.95;4.55;;;;;;;20.39;100.00;101504.56;5135414;28;20027;-71
2022/05/27 05:32:24;;;;;;;10.93;5.95;;;;;;;20.51;100.00;101515.53;5134889;28;20027;-70
2022/05/27 05:35:11;;;;;;;11.40;8.23;;;;;;;20.30;100.00;101510.31;5120205;28;20023;-70
2022/05/27 05:37:57;;;;;;;7.38;4.90;;;;;;;20.60;100.00;101509.78;5134526;28;20364;-70
2022/05/27 05:40:43;;;;;;;9.50;4.63;;;;;;;20.79;100.00;101508.00;5135052;28;20023;-72
2022/05/27 05:43:29;;;;;;;6.70;4.82;;;;;;;20.76;100.00;101509.91;5120938;28;20019;-72
2022/05/27 05:46:14;;;;;;;6.55;3.97;;;;;;;20.77;100.00;101509.00;5134683;28;20342;-71
2022/05/27 05:49:00;;;;;;;11.68;5.15;;;;;;;20.96;100.00;101512.53;5134696;28;20111;-72
2022/05/27 05:51:46;;;;;;;6.35;4.10;;;;;;;21.11;100.00;101506.50;5121268;28;20130;-73
2022/05/27 05:54:32;;;;;;;7.65;4.05;;;;;;;21.19;100.00;101512.31;5120192;28;20023;-73
2022/05/27 05:57:18;;;;;;;10.82;5.07;;;;;;;20.96;100.00;101516.09;5134753;28;20035;-73
2022/05/27 06:00:06;;;;;;;6.43;4.68;;;;;;;21.13;100.00;101510.81;5134904;28;20027;-73
2022/05/27 06:02:52;;;;;;;7.13;4.90;;;;;;;20.95;100.00;101510.81;5134064;28;20473;-73
2022/05/27 06:05:41;;;;;;;6.18;4.28;;;;;;;21.30;100.00;101504.66;5134562;28;20466;-73
2022/05/27 06:08:27;;;;;;;6.13;4.80;;;;;;;21.40;100.00;101504.13;5135839;27;20026;-73
2022/05/27 06:11:13;;;;;;;9.23;7.13;;;;;;;21.17;100.00;101507.06;5138193;27;20472;-73
2022/05/27 06:13:58;;;;;;;6.13;5.05;;;;;;;21.28;100.00;101499.41;5125079;27;20071;-73
2022/05/27 06:16:44;;;;;;;11.75;5.18;;;;;;;21.65;100.00;101501.97;5138176;27;20067;-73
2022/05/27 06:19:30;;;;;;;7.75;4.82;;;;;;;21.86;100.00;101502.72;5137950;27;20024;-73
2022/05/27 06:22:16;;;;;;;11.57;5.03;;;;;;;22.09;100.00;101511.25;5124260;27;20019;-72
2022/05/27 06:25:02;;;;;;;8.20;5.00;;;;;;;21.59;100.00;101504.06;5138148;27;20038;-73
2022/05/27 06:27:48;;;;;;;9.10;4.93;;;;;;;21.56;100.00;101510.44;5139013;27;20405;-72
2022/05/27 06:36:44;;;;;;;9.82;5.18;;;;;;;22.91;100.00;101497.84;5137934;27;20023;-70
2022/05/27 06:39:32;;;;;;;10.85;5.45;;;;;;;22.63;100.00;101500.31;5138507;27;20023;-73
2022/05/27 06:42:18;;;;;;;8.95;5.78;;;;;;;22.50;100.00;101504.59;5137303;27;20031;-73
2022/05/27 06:45:09;;;;;;;11.38;5.00;;;;;;;22.61;100.00;101506.69;5137896;27;20023;-73
2022/05/27 06:47:55;;;;;;;6.57;5.28;;;;;;;22.97;100.00;101504.66;5123267;27;20443;-72
2022/05/27 06:50:41;;;;;;;9.65;4.90;;;;;;;22.82;100.00;101508.16;5137805;27;20410;-75
2022/05/27 06:53:26;;;;;;;8.15;4.40;;;;;;;22.84;100.00;101506.28;5123984;27;20019;-72
2022/05/27 06:56:13;;;;;;;11.43;7.30;;;;;;;22.97;100.00;101501.97;5137496;27;20019;-72
2022/05/27 06:58:59;;;;;;;8.00;5.72;;;;;;;22.86;100.00;101510.59;5138317;27;20019;-71
2022/05/27 07:01:48;;;;;;;13.05;5.07;;;;;;;22.94;100.00;101511.03;5128832;27;20019;-77
2022/05/27 07:04:34;;;;;;;7.45;5.53;;;;;;;23.25;100.00;101511.06;5137318;27;20038;-73
2022/05/27 07:07:27;;;;;;;10.23;5.20;;;;;;;23.21;100.00;101504.19;5122576;27;20102;-73
2022/05/27 07:10:12;;;;;;;7.88;5.20;;;;;;;22.74;100.00;101505.06;5124186;27;20030;-73
2022/05/27 07:13:07;;;;;;;11.57;5.30;;;;;;;22.87;100.00;101506.97;5122162;27;20094;-73
2022/05/27 07:15:53;;;;;;;11.82;6.07;;;;;;;23.46;100.00;101502.75;5123935;27;20038;-71
2022/05/27 07:18:39;;;;;;;5.72;4.85;;;;;;;23.95;100.00;101501.63;5138985;27;20031;-70
2022/05/27 07:22:01;;;;;;;5.80;4.68;;;;;;;23.57;100.00;101505.66;5137653;27;20344;-75
2022/05/27 07:24:47;;;;;;;8.07;4.95;;;;;;;24.43;100.00;101502.13;5035799;28;20029;-74
2022/05/27 07:27:32;;;;;;;6.78;5.10;;;;;;;24.56;100.00;101502.25;5036719;28;20044;-71
2022/05/27 07:30:18;;;;;;;11.30;5.45;;;;;;;24.60;100.00;101501.09;5036046;28;20032;-72
2022/05/27 07:33:04;;;;;;;8.13;5.13;;;;;;;24.59;100.00;101502.06;5105292;27;20367;-73
2022/05/27 07:35:50;;;;;;;8.55;4.68;;;;;;;24.52;100.00;101504.25;5137059;27;20031;-73
2022/05/27 07:38:36;;;;;;;8.57;5.82;;;;;;;24.92;100.00;101499.94;5122969;27;20462;-73
2022/05/27 07:41:24;;;;;;;13.55;11.18;;;;;;;25.10;100.00;101502.28;5136481;27;20378;-73
2022/05/27 07:44:09;;;;;;;11.40;5.18;;;;;;;25.33;98.73;101503.50;5136131;27;20031;-74
2022/05/27 07:46:55;;;;;;;7.47;4.70;;;;;;;25.78;96.23;101503.97;5136286;27;20359;-74
2022/05/27 07:49:41;;;;;;;10.98;5.28;;;;;;;25.35;100.00;101499.75;5136031;27;20030;-74
2022/05/27 07:52:27;;;;;;;6.13;5.07;;;;;;;25.71;95.94;101494.59;5137013;27;20466;-73
2022/05/27 07:55:13;;;;;;;8.65;5.40;;;;;;;25.83;97.23;101499.13;5135631;27;20038;-73
2022/05/27 07:57:59;;;;;;;6.90;5.15;;;;;;;25.99;96.37;101499.84;5122416;27;20031;-73
2022/05/27 08:00:44;;;;;;;7.43;4.85;;;;;;;25.89;97.69;101504.09;5136671;27;20027;-73
2022/05/27 08:03:31;;;;;;;5.70;4.97;;;;;;;25.85;97.87;101499.03;5136415;27;20027;-73
2022/05/27 08:06:16;;;;;;;6.40;4.78;;;;;;;26.35;93.09;101499.09;5136327;27;20027;-73
2022/05/27 08:09:02;;;;;;;10.48;5.65;;;;;;;26.37;94.29;101497.19;5136937;27;20042;-73
2022/05/27 08:11:48;;;;;;;7.00;5.72;;;;;;;26.41;94.05;101491.47;5121795;27;20027;-72
2022/05/27 08:14:34;;;;;;;8.38;5.43;;;;;;;26.95;89.84;101490.22;5121648;27;20416;-74
2022/05/27 08:17:20;;;;;;;7.32;4.70;;;;;;;27.28;86.92;101497.66;5121311;27;20471;-74
2022/05/27 08:20:08;;;;;;;6.07;5.18;;;;;;;27.80;82.86;101495.44;5120731;27;20038;-73
2022/05/27 08:22:54;;;;;;;6.95;5.13;;;;;;;27.25;87.18;101489.84;5134832;27;20054;-73
2022/05/27 08:25:40;;;;;;;5.60;4.70;;;;;;;27.27;83.33;101498.63;5135494;27;20328;-74
2022/05/27 08:28:26;;;;;;;5.85;4.63;;;;;;;27.34;83.40;101495.41;5136493;27;20023;-73
2022/05/27 08:31:13;;;;;;;7.68;4.82;;;;;;;27.58;81.46;101488.13;5135747;27;20042;-74
2022/05/27 08:40:47;;;;;;;7.97;4.88;;;;;;;28.27;71.76;101486.41;5136266;27;20106;-73
2022/05/27 08:43:48;;;;;;;23.38;12.88;;;;;;;28.67;68.01;101485.84;5121176;27;20092;-74
2022/05/27 08:47:35;;;;;;;9.02;4.30;;;;;;;28.46;67.23;101478.59;5120650;27;20030;-72
2022/05/27 08:50:42;;;;;;;5.10;4.60;;;;;;;27.96;68.11;101468.22;5043068;27;20061;-74
2022/05/27 08:53:51;;;;;;;6.13;4.72;;;;;;;28.11;68.99;101465.19;5134884;27;20031;-73
2022/05/27 09:00:06;;;;;;;5.07;4.22;;;;;;;28.57;65.66;101465.97;5135396;27;20105;-74
2022/05/27 09:03:05;;;;;;;5.72;4.03;;;;;;;28.66;62.42;101465.25;5134720;27;20104;-73
2022/05/27 09:06:04;;;;;;;6.07;4.10;;;;;;;28.70;61.55;101455.94;5134016;27;20344;-74
2022/05/27 09:08:50;;;;;;;5.82;4.38;;;;;;;28.59;60.78;101452.38;5135231;27;20027;-72
2022/05/27 09:11:46;;;;;;;8.32;4.38;;;;;;;29.05;59.00;101453.91;5135700;27;20023;-71
2022/05/27 09:14:35;;;;;;;6.70;4.00;;;;;;;29.25;56.57;101455.81;5120622;27;20062;-71
2022/05/27 09:17:38;;;;;;;8.32;4.05;;;;;;;29.25;55.83;101452.28;5135699;27;20375;-71
2022/05/27 09:20:41;;;;;;;6.75;3.90;;;;;;;29.54;52.56;101446.13;5134626;27;20157;-72
2022/05/27 09:23:55;;;;;;;6.45;4.07;;;;;;;29.05;53.49;101447.69;5134781;27;20023;-71
2022/05/27 09:27:00;;;;;;;7.00;3.75;;;;;;;29.38;52.19;101436.75;5137998;27;20098;-73
2022/05/27 09:29:59;;;;;;;5.00;3.90;;;;;;;29.37;52.55;101438.59;5136860;27;20507;-74
2022/05/27 09:32:47;;;;;;;6.10;3.53;;;;;;;29.15;53.13;101432.41;5139106;27;20031;-72
2022/05/27 09:35:42;;;;;;;4.60;3.30;;;;;;;28.93;52.69;101432.47;5137792;28;20379;-72
2022/05/27 09:38:31;;;;;;;6.00;3.08;;;;;;;29.02;53.29;101423.63;5134985;28;20019;-74
2022/05/27 09:41:39;;;;;;;9.15;3.72;;;;;;;29.21;52.71;101419.25;5135103;28;20023;-73
2022/05/27 09:44:50;;;;;;;5.68;3.28;;;;;;;29.62;52.04;101415.81;5137486;27;20055;-72
2022/05/27 09:47:36;;;;;;;5.63;3.63;;;;;;;29.60;49.99;101415.06;5139035;27;20103;-72
2022/05/27 09:50:37;;;;;;;8.65;7.38;;;;;;;29.34;51.50;101408.31;5125334;27;20027;-73
2022/05/27 09:53:32;;;;;;;30.65;24.60;;;;;;;29.04;55.17;101406.31;5139033;27;20348;-73
2022/05/27 09:56:35;;;;;;;7.28;4.10;;;;;;;28.48;55.18;101395.78;5139579;27;20027;-74
2022/05/27 09:59:45;;;;;;;5.93;4.38;;;;;;;28.72;55.31;101401.88;5123812;27;20447;-74
2022/05/27 10:02:37;;;;;;;5.50;3.80;;;;;;;29.13;53.47;101393.91;5138512;27;20023;-73
2022/05/27 10:05:24;;;;;;;8.52;3.45;;;;;;;29.24;51.40;101385.75;5138512;27;20015;-73
2022/05/27 10:08:10;;;;;;;6.15;3.67;;;;;;;29.66;52.36;101384.84;5139020;27;20023;-73
2022/05/27 10:11:14;;;;;;;4.78;3.50;;;;;;;28.85;53.59;101386.38;5138306;27;20400;-73
2022/05/27 10:14:06;;;;;;;9.20;3.60;;;;;;;29.15;53.03;101378.44;5138173;27;20047;-75
2022/05/27 10:17:01;;;;;;;5.15;3.78;;;;;;;29.19;52.46;101383.47;5137746;27;20115;-73
2022/05/27 10:19:48;;;;;;;6.32;3.95;;;;;;;29.63;51.46;101377.00;5138186;27;20023;-73
2022/05/27 10:22:33;;;;;;;6.63;3.83;;;;;;;29.40;51.69;101370.84;5139555;27;20450;-73
2022/05/27 10:25:29;;;;;;;11.40;5.18;;;;;;;29.16;51.20;101380.13;5138368;27;20038;-73
2022/05/27 10:28:29;;;;;;;7.88;4.20;;;;;;;28.77;52.61;101370.81;5138367;27;20061;-74
2022/05/27 10:31:16;;;;;;;5.82;3.53;;;;;;;29.11;52.22;101361.66;5138821;27;20029;-74
2022/05/27 10:34:03;;;;;;;6.22;5.20;;;;;;;29.36;51.84;101358.56;5137592;27;20459;-73
2022/05/27 10:37:00;;;;;;;7.45;4.00;;;;;;;29.76;50.27;101351.47;5138043;27;20027;-71
2022/05/27 10:40:02;;;;;;;7.47;3.40;;;;;;;29.50;50.32;101360.09;5122849;27;20019;-72
2022/05/27 10:43:25;;;;;;;5.22;3.30;;;;;;;29.68;49.57;101355.81;5137562;27;20034;-72
2022/05/27 10:46:15;;;;;;;7.65;3.50;;;;;;;29.30;50.07;101347.44;5138726;27;20027;-71
2022/05/27 10:49:03;;;;;;;6.03;3.60;;;;;;;29.39;50.16;101355.63;5137937;27;20039;-75
2022/05/27 10:52:02;;;;;;;6.90;3.25;;;;;;;29.52;50.23;101348.16;5137989;27;20019;-74
2022/05/27 10:55:02;;;;;;;17.33;11.70;;;;;;;29.63;48.55;101344.56;5136387;27;20417;-73
2022/05/27 11:04:33;;;;;;;7.90;3.40;;;;;;;30.00;47.78;101332.25;5137867;27;20443;-74
2022/05/27 11:07:38;;;;;;;5.60;3.60;;;;;;;30.45;48.49;101330.84;5122654;27;20026;-74
2022/05/27 11:10:38;;;;;;;10.25;3.75;;;;;;;29.93;49.22;101326.53;5137870;27;20463;-74
2022/05/27 11:17:06;;;;;;;4.80;3.45;;;;;;;30.31;48.82;101315.03;5138040;27;20436;-73
2022/05/27 11:20:13;;;;;;;4.05;3.63;;;;;;;29.76;47.67;101318.19;5137219;27;20057;-74
2022/05/27 11:23:33;;;;;;;4.05;3.35;;;;;;;29.72;48.95;101311.34;5136640;27;20048;-73
2022/05/27 11:26:33;;;;;;;6.60;3.70;;;;;;;29.84;47.69;101305.72;5137782;27;20397;-72
2022/05/27 11:29:28;;;;;;;5.75;3.65;;;;;;;29.75;48.45;101297.56;5137617;27;20066;-74
2022/05/27 11:32:48;;;;;;;6.50;3.78;;;;;;;29.41;49.13;101291.53;5137569;27;20415;-73
2022/05/27 11:36:09;;;;;;;7.10;3.65;;;;;;;29.53;49.97;101285.06;5124124;27;20023;-74
2022/05/27 11:39:13;;;;;;;4.50;3.58;;;;;;;29.48;48.73;101283.75;5122670;27;20106;-74
2022/05/27 11:42:31;;;;;;;4.28;3.60;;;;;;;29.94;46.94;101281.44;5136835;27;20019;-74
2022/05/27 11:45:35;;;;;;;5.43;3.60;;;;;;;30.03;47.00;101275.22;5122004;27;20371;-74
2022/05/27 11:48:32;;;;;;;4.60;3.65;;;;;;;30.30;46.59;101264.66;5136641;27;20408;-74
2022/05/27 11:51:18;;;;;;;5.00;4.05;;;;;;;30.75;46.94;101268.56;5136672;27;20023;-74
2022/05/27 11:54:22;;;;;;;6.28;3.72;;;;;;;31.04;45.68;101273.00;5136008;27;20442;-74
2022/05/27 11:57:23;;;;;;;6.32;3.92;;;;;;;31.12;45.62;101261.41;5122174;27;20027;-74
2022/05/27 12:00:18;;;;;;;9.02;3.90;;;;;;;30.49;46.24;101264.66;5121599;27;20053;-73
2022/05/27 12:03:17;;;;;;;8.98;5.50;;;;;;;31.02;45.73;101252.47;5121362;27;20023;-73
2022/05/27 12:06:29;;;;;;;7.13;4.30;;;;;;;30.32;46.35;101252.72;5136466;27;20029;-74
2022/05/27 12:09:29;;;;;;;5.95;3.88;;;;;;;30.20;45.51;101258.34;5136511;27;20527;-74
2022/05/27 12:12:39;;;;;;;7.85;3.75;;;;;;;30.54;45.65;101238.91;5135800;27;20481;-72
2022/05/27 12:15:34;;;;;;;8.68;5.40;;;;;;;30.77;43.84;101231.38;5133245;27;20046;-70
2022/05/27 12:18:29;;;;;;;7.35;4.20;;;;;;;30.18;43.81;101228.75;5135462;27;20054;-71
2022/05/27 12:21:28;;;;;;;7.05;3.67;;;;;;;30.38;44.44;101229.66;5121458;27;20053;-70
2022/05/27 12:24:34;;;;;;;5.78;3.53;;;;;;;30.51;43.74;101224.81;5106730;27;20503;-72
2022/05/27 12:27:21;;;;;;;10.20;4.20;;;;;;;30.65;43.96;101214.44;5136696;27;20562;-72
2022/05/27 12:30:13;;;;;;;10.93;4.20;;;;;;;31.02;43.77;101218.13;5135494;27;20033;-70
2022/05/27 12:33:00;;;;;;;3.85;3.38;;;;;;;31.12;42.79;101220.81;5136281;27;20050;-74
2022/05/27 12:35:53;;;;;;;4.28;3.35;;;;;;;30.68;43.51;101213.28;5136060;27;20466;-73
2022/05/27 12:38:52;;;;;;;5.35;3.60;;;;;;;30.66;43.58;101208.00;5135650;27;20087;-74
2022/05/27 12:41:43;;;;;;;5.07;3.42;;;;;;;30.69;44.48;101196.94;5120783;27;20416;-72
2022/05/27 12:44:29;;;;;;;6.60;3.80;;;;;;;30.23;45.54;101202.19;5120694;27;20102;-74
2022/05/27 12:47:28;;;;;;;6.22;3.97;;;;;;;30.78;44.44;101196.06;5136065;27;20027;-73
2022/05/27 12:50:21;;;;;;;4.07;3.60;;;;;;;30.58;45.31;101188.09;5136333;27;20470;-74
2022/05/27 12:53:33;;;;;;;7.60;3.60;;;;;;;30.00;46.15;101181.75;5135291;27;20023;-74
2022/05/27 13:02:52;;;;;;;6.53;3.83;;;;;;;30.64;45.55;101165.88;5135878;27;20027;-74
2022/05/27 13:06:05;;;;;;;5.75;3.92;;;;;;;30.31;46.11;101166.31;5120275;27;20015;-73
2022/05/27 13:08:51;;;;;;;4.75;3.67;;;;;;;30.49;45.71;101170.88;5121043;27;20106;-74
2022/05/27 13:11:41;;;;;;;6.68;3.47;;;;;;;30.73;44.90;101159.63;5134660;27;20761;-73
2022/05/27 13:14:44;;;;;;;4.30;3.13;;;;;;;30.19;45.49;101160.19;5134226;27;20054;-74
2022/05/27 13:17:34;;;;;;;6.53;3.45;;;;;;;29.98;46.18;101154.00;5134219;27;20027;-73
2022/05/27 13:20:24;;;;;;;6.72;3.70;;;;;;;29.83;46.05;101152.72;5135098;27;20034;-73
2022/05/27 13:23:14;;;;;;;7.43;3.78;;;;;;;29.99;46.43;101150.31;5119907;27;20015;-74
2022/05/27 13:26:18;;;;;;;5.43;4.00;;;;;;;30.61;45.33;101145.38;5134661;27;20011;-74
2022/05/27 13:29:17;;;;;;;5.82;3.28;;;;;;;30.09;47.15;101144.94;5134954;27;20375;-73
2022/05/27 13:32:05;;;;;;;8.43;3.90;;;;;;;30.48;46.89;101134.00;5120030;27;20102;-73
2022/05/27 13:34:56;;;;;;;6.97;4.32;;;;;;;30.18;45.56;101127.88;5134339;28;20023;-74
2022/05/27 13:37:57;;;;;;;47.20;37.95;;;;;;;30.44;46.08;101132.56;5134405;28;20031;-73
2022/05/27 13:40:44;;;;;;;5.28;3.30;;;;;;;30.06;44.87;101134.41;5134814;28;20027;-74
2022/05/27 13:43:39;;;;;;;5.78;3.47;;;;;;;30.18;44.90;101123.31;5134254;28;20034;-74
2022/05/27 13:46:30;;;;;;;4.10;3.15;;;;;;;30.34;44.60;101115.50;5106123;28;20023;-74
2022/05/27 13:49:28;;;;;;;6.55;3.80;;;;;;;30.63;44.90;101116.34;5119732;28;20027;-73
2022/05/27 13:52:22;;;;;;;4.93;3.33;;;;;;;30.24;46.12;101111.09;5120037;28;20047;-74
2022/05/27 13:55:13;;;;;;;8.88;3.95;;;;;;;30.21;46.13;101111.34;5133849;28;20026;-74
2022/05/27 13:58:03;;;;;;;5.18;3.40;;;;;;;30.01;46.34;101091.56;5121441;28;20019;-73
2022/05/27 14:00:50;;;;;;;4.40;3.97;;;;;;;29.45;48.99;101100.41;5133970;28;20035;-74